createdAt,value
2019-02-27T00:00:48.220Z,99515.00
2019-02-27T00:05:56.715Z,99520.00
2019-02-27T00:11:02.714Z,99515.00
2019-02-27T00:16:11.619Z,99519.00
2019-02-27T00:21:18.192Z,99508.00
2019-02-27T00:26:24.805Z,99501.00
2019-02-27T00:31:31.784Z,99500.00
2019-02-27T00:36:38.636Z,99505.00
2019-02-27T00:41:45.999Z,99508.00
2019-02-27T00:46:52.445Z,99493.00
2019-02-27T00:51:59.338Z,99494.00
2019-02-27T00:57:06.346Z,99498.00
2019-02-27T01:02:13.353Z,99483.00
2019-02-27T01:07:20.834Z,99482.00
2019-02-27T01:12:29.299Z,99468.00
2019-02-27T01:17:36.263Z,99471.00
2019-02-27T01:22:43.754Z,99473.00
2019-02-27T01:27:49.766Z,99462.00
2019-02-27T01:32:55.857Z,99456.00
2019-02-27T01:38:05.119Z,99444.00
2019-02-27T01:43:09.603Z,99438.00
2019-02-27T01:48:15.608Z,99429.00
2019-02-27T01:53:21.620Z,99443.00
2019-02-27T01:58:46.866Z,99418.00
2019-02-27T02:03:52.831Z,99421.00
2019-02-27T02:09:34.274Z,99423.00
2019-02-27T02:15:12.613Z,99405.00
2019-02-27T02:20:53.248Z,99403.00
2019-02-27T02:26:25.470Z,99411.00
2019-02-27T02:31:57.826Z,99398.00
2019-02-27T02:37:19.685Z,99396.00
2019-02-27T02:43:05.873Z,99391.00
2019-02-27T02:48:22.273Z,99396.00
2019-02-27T02:53:32.651Z,99385.00
2019-02-27T02:59:33.445Z,99376.00
2019-02-27T03:05:23.274Z,99385.00
2019-02-27T03:10:55.736Z,99366.00
2019-02-27T03:16:17.954Z,99362.00
2019-02-27T03:22:05.894Z,99355.00
2019-02-27T03:27:56.066Z,99354.00
2019-02-27T03:33:30.832Z,99344.00
2019-02-27T03:38:55.907Z,99342.00
2019-02-27T03:44:25.731Z,99341.00
2019-02-27T03:50:06.359Z,99341.00
2019-02-27T03:55:54.569Z,99326.00
2019-02-27T04:01:30.672Z,99340.00
2019-02-27T04:07:07.856Z,99335.00
2019-02-27T04:12:16.624Z,99330.00
2019-02-27T04:17:35.635Z,99334.00
2019-02-27T04:23:00.889Z,99325.00
2019-02-27T04:28:08.103Z,99325.00
2019-02-27T04:33:14.071Z,99344.00
2019-02-27T04:38:20.186Z,99338.00
2019-02-27T04:43:26.301Z,99349.00
2019-02-27T04:48:45.165Z,99336.00
2019-02-27T04:53:51.833Z,99345.00
2019-02-27T04:58:57.899Z,99337.00
2019-02-27T05:04:03.950Z,99352.00
2019-02-27T05:09:10.065Z,99340.00
2019-02-27T05:14:16.154Z,99347.00
2019-02-27T05:19:22.219Z,99349.00
2019-02-27T05:24:28.282Z,99337.00
2019-02-27T05:29:35.154Z,99342.00
2019-02-27T05:34:42.066Z,99335.00
2019-02-27T05:39:50.710Z,99340.00
2019-02-27T05:44:56.680Z,99348.00
2019-02-27T05:50:04.818Z,99332.00
2019-02-27T05:55:10.947Z,99329.00
2019-02-27T06:00:22.437Z,99327.00
2019-02-27T06:05:30.393Z,99323.00
2019-02-27T06:10:37.496Z,99323.00
2019-02-27T06:15:44.372Z,99320.00
2019-02-27T06:20:50.488Z,99327.00
2019-02-27T06:25:59.440Z,99309.00
2019-02-27T06:31:05.184Z,99306.00
2019-02-27T06:36:12.155Z,99299.00
2019-02-27T06:41:18.626Z,99291.00
2019-02-27T06:46:25.965Z,99294.00
2019-02-27T06:51:33.347Z,99309.00
2019-02-27T06:56:41.877Z,99297.00
2019-02-27T07:01:48.103Z,99284.00
2019-02-27T07:06:55.469Z,99284.00
2019-02-27T07:12:03.486Z,99278.00
2019-02-27T07:17:09.515Z,99286.00
2019-02-27T07:22:16.169Z,99286.00
2019-02-27T07:27:22.956Z,99281.00
2019-02-27T07:32:31.564Z,99289.00
2019-02-27T07:37:39.671Z,99286.00
2019-02-27T07:42:45.679Z,99274.00
2019-02-27T07:47:51.718Z,99279.00
2019-02-27T07:52:57.701Z,99279.00
2019-02-27T07:58:03.783Z,99270.00
2019-02-27T08:03:12.874Z,99275.00
2019-02-27T08:08:17.611Z,99266.00
2019-02-27T08:13:23.673Z,99272.00
2019-02-27T08:18:30.625Z,99285.00
2019-02-27T08:23:37.522Z,99274.00
2019-02-27T08:28:43.680Z,99267.00
2019-02-27T08:33:49.886Z,99266.00
2019-02-27T08:38:55.955Z,99259.00
2019-02-27T08:44:02.138Z,99246.00
2019-02-27T08:49:08.219Z,99240.00
2019-02-27T08:54:16.066Z,99233.00
2019-02-27T08:59:22.363Z,99231.00
2019-02-27T09:04:28.763Z,99241.00
2019-02-27T09:09:36.224Z,99231.00
2019-02-27T09:14:42.367Z,99233.00
2019-02-27T09:19:48.524Z,99227.00
2019-02-27T09:24:57.241Z,99227.00
2019-02-27T09:30:04.668Z,99224.00
2019-02-27T09:35:14.128Z,99212.00
2019-02-27T09:40:30.002Z,99208.00
2019-02-27T09:45:37.155Z,99203.00
2019-02-27T09:50:48.928Z,99200.00
2019-02-27T09:55:56.127Z,99197.00
2019-02-27T10:01:14.819Z,99194.00
2019-02-27T10:06:23.010Z,99190.00
2019-02-27T10:11:30.085Z,99185.00
2019-02-27T10:16:37.125Z,99180.00
2019-02-27T10:21:45.256Z,99176.00
2019-02-27T10:26:53.601Z,99165.00
2019-02-27T10:32:00.722Z,99159.00
2019-02-27T10:37:07.619Z,99155.00
2019-02-27T10:42:14.897Z,99149.00
2019-02-27T10:47:21.870Z,99143.00
2019-02-27T10:52:28.928Z,99138.00
2019-02-27T10:57:38.333Z,99135.00
2019-02-27T11:02:45.108Z,99137.00
2019-02-27T11:07:52.896Z,99127.00
2019-02-27T11:13:05.734Z,99123.00
2019-02-27T11:18:09.032Z,99131.00
2019-02-27T11:23:15.239Z,99111.00
2019-02-27T11:28:21.392Z,99118.00
2019-02-27T11:33:32.386Z,99095.00
2019-02-27T11:38:35.495Z,99093.00
2019-02-27T11:43:42.013Z,99079.00
2019-02-27T11:48:48.345Z,99075.00
2019-02-27T11:53:54.554Z,99065.00
2019-02-27T11:59:02.333Z,99063.00
2019-02-27T12:04:08.506Z,99050.00
2019-02-27T12:09:14.627Z,99044.00
2019-02-27T12:14:21.335Z,99040.00
2019-02-27T12:19:27.408Z,99030.00
2019-02-27T12:24:33.714Z,99021.00
2019-02-27T12:29:39.762Z,99009.00
2019-02-27T12:34:46.795Z,99009.00
2019-02-27T12:39:52.946Z,98994.00
2019-02-27T12:44:58.976Z,98990.00
2019-02-27T12:50:10.889Z,98979.00
2019-02-27T12:55:20.450Z,98971.00
2019-02-27T13:00:32.299Z,98967.00
2019-02-27T13:05:39.216Z,98967.00
2019-02-27T13:10:45.368Z,98955.00
2019-02-27T13:15:52.358Z,98958.00
2019-02-27T13:20:58.541Z,98948.00
2019-02-27T13:26:06.698Z,98940.00
2019-02-27T13:31:16.197Z,98935.00
2019-02-27T13:36:22.820Z,98926.00
2019-02-27T13:41:29.880Z,98922.00
2019-02-27T13:46:37.088Z,98915.00
2019-02-27T13:51:45.856Z,98917.00
2019-02-27T13:56:52.185Z,98896.00
2019-02-27T14:02:00.653Z,98887.00
2019-02-27T14:07:08.448Z,98880.00
2019-02-27T14:12:15.779Z,98872.00
2019-02-27T14:17:24.372Z,98862.00
2019-02-27T14:22:31.677Z,98851.00
2019-02-27T14:27:39.960Z,98853.00
2019-02-27T14:32:47.436Z,98846.00
2019-02-27T14:37:54.014Z,98843.00
2019-02-27T14:43:00.388Z,98835.00
2019-02-27T14:48:06.673Z,98838.00
2019-02-27T14:53:12.928Z,98833.00
2019-02-27T14:58:21.794Z,98826.00
2019-02-27T15:03:30.079Z,98834.00
2019-02-27T15:08:35.045Z,98811.00
2019-02-27T15:13:42.818Z,98799.00
2019-02-27T15:18:48.956Z,98780.00
2019-02-27T15:23:55.140Z,98776.00
2019-02-27T15:29:03.108Z,98773.00
2019-02-27T15:34:11.851Z,98766.00
2019-02-27T15:39:20.288Z,98757.00
2019-02-27T15:44:26.320Z,98759.00
2019-02-27T15:49:32.555Z,98738.00
2019-02-27T15:54:38.921Z,98744.00
2019-02-27T15:59:45.209Z,98729.00
2019-02-27T16:04:52.183Z,98720.00
2019-02-27T16:10:06.775Z,98707.00
2019-02-27T16:15:16.963Z,98695.00
2019-02-27T16:20:27.742Z,98694.00
2019-02-27T16:25:35.210Z,98694.00
2019-02-27T16:30:43.043Z,98681.00
2019-02-27T16:35:49.413Z,98680.00
2019-02-27T16:40:55.531Z,98681.00
2019-02-27T16:46:07.692Z,98671.00
2019-02-27T16:51:11.198Z,98669.00
2019-02-27T16:56:19.684Z,98664.00
2019-02-27T17:01:29.524Z,98669.00
2019-02-27T17:06:36.781Z,98662.00
2019-02-27T17:11:43.885Z,98656.00
2019-02-27T17:16:49.781Z,98660.00
2019-02-27T17:21:58.791Z,98661.00
2019-02-27T17:27:05.446Z,98648.00
2019-02-27T17:32:13.637Z,98651.00
2019-02-27T17:37:21.103Z,98641.00
2019-02-27T17:42:27.638Z,98624.00
2019-02-27T17:47:34.149Z,98629.00
2019-02-27T17:52:40.506Z,98619.00
2019-02-27T17:57:46.615Z,98618.00
2019-02-27T18:02:52.579Z,98613.00
2019-02-27T18:07:59.530Z,98607.00
2019-02-27T18:13:06.292Z,98612.00
2019-02-27T18:18:13.817Z,98609.00
2019-02-27T18:23:22.023Z,98589.00
2019-02-27T18:28:32.706Z,98592.00
2019-02-27T18:33:37.666Z,98589.00
2019-02-27T18:38:43.913Z,98568.00
2019-02-27T18:43:49.797Z,98555.00
2019-02-27T18:48:56.268Z,98553.00
2019-02-27T18:54:03.280Z,98537.00
2019-02-27T18:59:23.354Z,98534.00
2019-02-27T19:04:35.023Z,98522.00
2019-02-27T19:09:58.396Z,98516.00
2019-02-27T19:15:08.182Z,98515.00
2019-02-27T19:20:47.169Z,98506.00
2019-02-27T19:25:54.159Z,98504.00
2019-02-27T19:31:01.023Z,98484.00
2019-02-27T19:36:08.754Z,98490.00
2019-02-27T19:41:16.337Z,98485.00
2019-02-27T19:46:23.389Z,98483.00
2019-02-27T19:51:30.700Z,98467.00
2019-02-27T19:56:38.278Z,98472.00
2019-02-27T20:01:48.895Z,98459.00
2019-02-27T20:06:54.006Z,98442.00
2019-02-27T20:12:00.818Z,98451.00
2019-02-27T20:17:07.929Z,98437.00
2019-02-27T20:22:19.003Z,98428.00
2019-02-27T20:27:26.874Z,98422.00
2019-02-27T20:32:33.817Z,98420.00
2019-02-27T20:37:41.367Z,98405.00
2019-02-27T20:42:51.430Z,98395.00
2019-02-27T20:48:00.724Z,98390.00
2019-02-27T20:53:05.720Z,98386.00
2019-02-27T20:58:16.349Z,98370.00
2019-02-27T21:03:26.765Z,98349.00
2019-02-27T21:08:33.305Z,98357.00
2019-02-27T21:13:39.095Z,98343.00
2019-02-27T21:18:45.084Z,98338.00
2019-02-27T21:23:51.837Z,98325.00
2019-02-27T21:28:59.018Z,98319.00
2019-02-27T21:34:05.927Z,98320.00
2019-02-27T21:39:12.714Z,98311.00
2019-02-27T21:44:25.497Z,98311.00
2019-02-27T21:49:31.841Z,98311.00
2019-02-27T21:54:39.303Z,98299.00
2019-02-27T21:59:44.340Z,98289.00
2019-02-27T22:04:50.432Z,98272.00
2019-02-27T22:09:56.260Z,98274.00
2019-02-27T22:15:03.329Z,98278.00
2019-02-27T22:20:13.359Z,98258.00
2019-02-27T22:25:21.288Z,98259.00
2019-02-27T22:30:31.789Z,98258.00
2019-02-27T22:35:38.625Z,98257.00
2019-02-27T22:40:44.599Z,98242.00
2019-02-27T22:45:50.527Z,98248.00
2019-02-27T22:50:58.515Z,98232.00
2019-02-27T22:56:05.349Z,98230.00
2019-02-27T23:01:18.152Z,98232.00
2019-02-27T23:06:24.817Z,98215.00
2019-02-27T23:11:46.214Z,98198.00
2019-02-27T23:16:52.291Z,98197.00
2019-02-27T23:21:58.697Z,98189.00
2019-02-27T23:27:04.885Z,98187.00
2019-02-27T23:32:30.073Z,98176.00
2019-02-27T23:37:38.503Z,98172.00
2019-02-27T23:42:45.469Z,98166.00
2019-02-27T23:47:51.406Z,98165.00
2019-02-27T23:52:57.737Z,98154.00
2019-02-27T23:58:04.092Z,98160.00
